F\v Tenia — FPMH — position and weather

sailwx.info

Track history (hours):
 
Tides and Currents Weather Stations Pressure Air Temp Water Temp Dewpoint Dewpoint Depression Visibility Wind Speed Wind Dir Waves Ship Positions

F\v Tenia

Last reported at 2017-Apr-24 19:19 UTC. Time now 2017-May-01 02:22 UTC.
Position N 47°11' W 004°44'.

Length 22 m; draft 4 m.

Type: Fishing. MMSI: 227575000.

Date/timePositionNaut miles runAvg speedWind from/ knotsBaromVisibWave heightAir tempDewpointWater temp
2017-Apr-24 19:19N 47°11' W 004°44'38 6.8
2017-Apr-24 13:41N 47°31' W 003°55'1 7.8
2017-Apr-24 13:30N 47°32' W 003°54'4 7.6
2017-Apr-24 13:00N 47°34' W 003°49'4 7.6
2017-Apr-24 12:30N 47°36' W 003°44'4 7.7
2017-Apr-24 12:00N 47°38' W 003°39'4 7.9
2017-Apr-24 11:30N 47°39' W 003°34'4 7.7
2017-Apr-24 11:00N 47°40' W 003°28'4 7.9
2017-Apr-24 10:30N 47°42' W 003°23'2 4.3
2017-Apr-24 10:00N 47°44' W 003°22'0 0.0
2017-Apr-24 09:30N 47°44' W 003°22'0 0.0
2017-Apr-24 09:00N 47°44' W 003°22'0 0.2
2017-Apr-24 08:30N 47°44' W 003°22'0 0.0
2017-Apr-24 08:00N 47°44' W 003°22'0 0.0
2017-Apr-24 07:30N 47°44' W 003°22'0 0.0
2017-Apr-24 07:00N 47°44' W 003°22'0 0.0
2017-Apr-24 06:30N 47°44' W 003°22'0 0.0
2017-Apr-24 06:00N 47°44' W 003°22'0 0.0
2017-Apr-24 05:30N 47°44' W 003°22'0 0.0
2017-Apr-24 05:00N 47°44' W 003°22'2 3.7
2017-Apr-24 04:30N 47°42' W 003°22'3 6.4
2017-Apr-24 04:00N 47°40' W 003°27'1 1.8
2017-Apr-24 03:30N 47°40' W 003°28'0 0.5
2017-Apr-24 03:01N 47°40' W 003°28'1 2.6
2017-Apr-24 02:30N 47°40' W 003°30'2 3.5
2017-Apr-24 02:00N 47°40' W 003°32'1 2.8
2017-Apr-24 01:30N 47°39' W 003°34'3 6.9
2017-Apr-24 01:00N 47°36' W 003°37'4 8.2
2017-Apr-24 00:30N 47°34' W 003°41'4 8.2
2017-Apr-24 00:00N 47°31' W 003°46'16 8.3
2017-Apr-23 22:06N 47°19' W 004°01'3 8.1
2017-Apr-23 21:46N 47°19' W 004°05'3 8.2
2017-Apr-23 21:24N 47°20' W 004°10'13 1.0
2017-Apr-23 08:14N 47°22' W 004°29'9 0.4
2017-Apr-22 09:05N 47°20' W 004°42'0 2.6
2017-Apr-22 09:00N 47°20' W 004°43'1 1.7
2017-Apr-22 08:25N 47°19' W 004°44'0 0.6
2017-Apr-22 08:00N 47°19' W 004°44'0 0.7
2017-Apr-22 07:31N 47°19' W 004°43'1 0.6
2017-Apr-22 05:35N 47°20' W 004°42'0 2.9
2017-Apr-22 05:30N 47°20' W 004°42'1 1.9
2017-Apr-22 05:00N 47°19' W 004°43'1 0.9
2017-Apr-22 04:28N 47°20' W 004°43'2 1.0
2017-Apr-22 02:46N 47°18' W 004°42'2 0.3
2017-Apr-21 19:13N 47°20' W 004°40'0 1.1
2017-Apr-21 19:00N 47°20' W 004°40'1 1.3
2017-Apr-21 18:30N 47°20' W 004°41'1 1.2
2017-Apr-21 17:50N 47°20' W 004°42'0 1.2
2017-Apr-21 17:29N 47°20' W 004°43'1 1.1
2017-Apr-21 17:00N 47°20' W 004°44'1 1.1
2017-Apr-21 16:30N 47°20' W 004°45'1 1.2
2017-Apr-21 16:00N 47°20' W 004°45'  
2017-Apr-17 14:51N 47°22' W 004°26'1 1.3
2017-Apr-17 14:22N 47°22' W 004°26'1 1.3
2017-Apr-17 13:11N 47°20' W 004°26'1 0.2
2017-Apr-17 08:19N 47°20' W 004°26'0 0.8
2017-Apr-17 07:51N 47°20' W 004°26'0 0.8
2017-Apr-17 07:25N 47°20' W 004°26'0 0.7
2017-Apr-17 06:51N 47°21' W 004°26'0 0.6
2017-Apr-17 06:24N 47°21' W 004°27'1 1.2
2017-Apr-17 05:37N 47°22' W 004°26'0 0.4
2017-Apr-17 05:24N 47°22' W 004°26'0 0.3
2017-Apr-17 04:53N 47°22' W 004°26'0 0.3
2017-Apr-17 03:56N 47°22' W 004°27'0 0.3
2017-Apr-17 03:30N 47°22' W 004°27'0 0.1
2017-Apr-17 02:52N 47°22' W 004°27'1 0.7
2017-Apr-17 01:27N 47°21' W 004°26'2 1.5
2017-Apr-17 00:16N 47°22' W 004°28'0 1.6
2017-Apr-16 23:58N 47°22' W 004°27'35 3.0
2017-Apr-16 12:02N 47°37' W 003°39'0 8.2
2017-Apr-16 12:00N 47°37' W 003°39'4 8.3
2017-Apr-16 11:30N 47°39' W 003°33'4 8.3
2017-Apr-16 11:00N 47°40' W 003°28'4 8.2
2017-Apr-16 10:30N 47°42' W 003°22'1 2.9
2017-Apr-16 10:00N 47°44' W 003°22'0 0.0
2017-Apr-16 09:30N 47°44' W 003°22'0 0.0
2017-Apr-16 09:00N 47°44' W 003°22'0 0.3
2017-Apr-16 08:30N 47°44' W 003°22'0 0.0
2017-Apr-16 08:00N 47°44' W 003°22'0 0.0
2017-Apr-16 07:30N 47°44' W 003°22'0 0.0
2017-Apr-16 07:00N 47°44' W 003°22'0 0.0
2017-Apr-16 06:30N 47°44' W 003°22'0 0.0
2017-Apr-16 06:00N 47°44' W 003°22'0 0.0
2017-Apr-16 05:30N 47°44' W 003°22'2 4.5
2017-Apr-16 05:00N 47°42' W 003°23'4 8.7
2017-Apr-16 04:30N 47°40' W 003°29'4 8.4
2017-Apr-16 04:00N 47°38' W 003°35'4 8.7
2017-Apr-16 03:30N 47°36' W 003°39'4 8.6
2017-Apr-16 03:00N 47°33' W 003°44'  
Track history (hours):
 
Tides and Currents Weather Stations Pressure Air Temp Water Temp Dewpoint Dewpoint Depression Visibility Wind Speed Wind Dir Waves Ship Positions

F\v Tenia

Last reported at 2017-Apr-24 19:19 UTC. Time now 2017-May-01 02:22 UTC.
Position N 47°11' W 004°44'.

Length 22 m; draft 4 m.

Type: Fishing. MMSI: 227575000.

Date/timePositionNaut miles runAvg speedWind from/ knotsBaromVisibWave heightAir tempDewpointWater temp
2017-Apr-24 19:19N 47°11' W 004°44'38 6.8
2017-Apr-24 13:41N 47°31' W 003°55'1 7.8
2017-Apr-24 13:30N 47°32' W 003°54'4 7.6
2017-Apr-24 13:00N 47°34' W 003°49'4 7.6
2017-Apr-24 12:30N 47°36' W 003°44'4 7.7
2017-Apr-24 12:00N 47°38' W 003°39'4 7.9
2017-Apr-24 11:30N 47°39' W 003°34'4 7.7
2017-Apr-24 11:00N 47°40' W 003°28'4 7.9
2017-Apr-24 10:30N 47°42' W 003°23'2 4.3
2017-Apr-24 10:00N 47°44' W 003°22'0 0.0
2017-Apr-24 09:30N 47°44' W 003°22'0 0.0
2017-Apr-24 09:00N 47°44' W 003°22'0 0.2
2017-Apr-24 08:30N 47°44' W 003°22'0 0.0
2017-Apr-24 08:00N 47°44' W 003°22'0 0.0
2017-Apr-24 07:30N 47°44' W 003°22'0 0.0
2017-Apr-24 07:00N 47°44' W 003°22'0 0.0
2017-Apr-24 06:30N 47°44' W 003°22'0 0.0
2017-Apr-24 06:00N 47°44' W 003°22'0 0.0
2017-Apr-24 05:30N 47°44' W 003°22'0 0.0
2017-Apr-24 05:00N 47°44' W 003°22'2 3.7
2017-Apr-24 04:30N 47°42' W 003°22'3 6.4
2017-Apr-24 04:00N 47°40' W 003°27'1 1.8
2017-Apr-24 03:30N 47°40' W 003°28'0 0.5
2017-Apr-24 03:01N 47°40' W 003°28'1 2.6
2017-Apr-24 02:30N 47°40' W 003°30'2 3.5
2017-Apr-24 02:00N 47°40' W 003°32'1 2.8
2017-Apr-24 01:30N 47°39' W 003°34'3 6.9
2017-Apr-24 01:00N 47°36' W 003°37'4 8.2
2017-Apr-24 00:30N 47°34' W 003°41'4 8.2
2017-Apr-24 00:00N 47°31' W 003°46'16 8.3
2017-Apr-23 22:06N 47°19' W 004°01'3 8.1
2017-Apr-23 21:46N 47°19' W 004°05'3 8.2
2017-Apr-23 21:24N 47°20' W 004°10'13 1.0
2017-Apr-23 08:14N 47°22' W 004°29'9 0.4
2017-Apr-22 09:05N 47°20' W 004°42'0 2.6
2017-Apr-22 09:00N 47°20' W 004°43'1 1.7
2017-Apr-22 08:25N 47°19' W 004°44'0 0.6
2017-Apr-22 08:00N 47°19' W 004°44'0 0.7
2017-Apr-22 07:31N 47°19' W 004°43'1 0.6
2017-Apr-22 05:35N 47°20' W 004°42'0 2.9
2017-Apr-22 05:30N 47°20' W 004°42'1 1.9
2017-Apr-22 05:00N 47°19' W 004°43'1 0.9
2017-Apr-22 04:28N 47°20' W 004°43'2 1.0
2017-Apr-22 02:46N 47°18' W 004°42'2 0.3
2017-Apr-21 19:13N 47°20' W 004°40'0 1.1
2017-Apr-21 19:00N 47°20' W 004°40'1 1.3
2017-Apr-21 18:30N 47°20' W 004°41'1 1.2
2017-Apr-21 17:50N 47°20' W 004°42'0 1.2
2017-Apr-21 17:29N 47°20' W 004°43'1 1.1
2017-Apr-21 17:00N 47°20' W 004°44'1 1.1
2017-Apr-21 16:30N 47°20' W 004°45'1 1.2
2017-Apr-21 16:00N 47°20' W 004°45'  
2017-Apr-17 14:51N 47°22' W 004°26'1 1.3
2017-Apr-17 14:22N 47°22' W 004°26'1 1.3
2017-Apr-17 13:11N 47°20' W 004°26'1 0.2
2017-Apr-17 08:19N 47°20' W 004°26'0 0.8
2017-Apr-17 07:51N 47°20' W 004°26'0 0.8
2017-Apr-17 07:25N 47°20' W 004°26'0 0.7
2017-Apr-17 06:51N 47°21' W 004°26'0 0.6
2017-Apr-17 06:24N 47°21' W 004°27'1 1.2
2017-Apr-17 05:37N 47°22' W 004°26'0 0.4
2017-Apr-17 05:24N 47°22' W 004°26'0 0.3
2017-Apr-17 04:53N 47°22' W 004°26'0 0.3
2017-Apr-17 03:56N 47°22' W 004°27'0 0.3
2017-Apr-17 03:30N 47°22' W 004°27'0 0.1
2017-Apr-17 02:52N 47°22' W 004°27'1 0.7
2017-Apr-17 01:27N 47°21' W 004°26'2 1.5
2017-Apr-17 00:16N 47°22' W 004°28'0 1.6
2017-Apr-16 23:58N 47°22' W 004°27'35 3.0
2017-Apr-16 12:02N 47°37' W 003°39'0 8.2
2017-Apr-16 12:00N 47°37' W 003°39'4 8.3
2017-Apr-16 11:30N 47°39' W 003°33'4 8.3
2017-Apr-16 11:00N 47°40' W 003°28'4 8.2
2017-Apr-16 10:30N 47°42' W 003°22'1 2.9
2017-Apr-16 10:00N 47°44' W 003°22'0 0.0
2017-Apr-16 09:30N 47°44' W 003°22'0 0.0
2017-Apr-16 09:00N 47°44' W 003°22'0 0.3
2017-Apr-16 08:30N 47°44' W 003°22'0 0.0
2017-Apr-16 08:00N 47°44' W 003°22'0 0.0
2017-Apr-16 07:30N 47°44' W 003°22'0 0.0
2017-Apr-16 07:00N 47°44' W 003°22'0 0.0
2017-Apr-16 06:30N 47°44' W 003°22'0 0.0
2017-Apr-16 06:00N 47°44' W 003°22'0 0.0
2017-Apr-16 05:30N 47°44' W 003°22'2 4.5
2017-Apr-16 05:00N 47°42' W 003°23'4 8.7
2017-Apr-16 04:30N 47°40' W 003°29'4 8.4
2017-Apr-16 04:00N 47°38' W 003°35'4 8.7
2017-Apr-16 03:30N 47°36' W 003°39'4 8.6
2017-Apr-16 03:00N 47°33' W 003°44'  

Dump ship's entire track history